Time;durP1;ratioP1;P1;durP2;ratioP2;P2;SDS_P1;SDS_P2;PMS_P1;PMS_P2;Temp;Humidity;BMP_temperature;BMP_pressure;BME280_temperature;BME280_humidity;BME280_pressure;Samples;Min_cycle;Max_cycle;Signal;HPM_P1;HPM_P2
2020/12/17 00:02:00;;;;;;;1.70;0.20;;;7.50;99.90;;;;;;5002863;28;20445;-58
2020/12/17 00:04:26;;;;;;;1.70;0.20;;;7.50;99.90;;;;;;5005733;28;20615;-57
2020/12/17 00:06:52;;;;;;;1.70;0.20;;;7.50;99.90;;;;;;5002453;28;20446;-58
2020/12/17 00:09:18;;;;;;;1.70;0.20;;;7.50;99.90;;;;;;5010011;28;20535;-58
2020/12/17 00:11:44;;;;;;;1.70;0.20;;;7.40;99.90;;;;;;5004396;28;20545;-58
2020/12/17 00:14:10;;;;;;;2.33;1.33;;;7.30;99.90;;;;;;5007447;28;20206;-57
2020/12/17 00:16:36;;;;;;;1.70;0.30;;;7.20;99.90;;;;;;5004845;28;20441;-58
2020/12/17 00:19:02;;;;;;;1.73;0.30;;;7.10;99.90;;;;;;5008528;28;20217;-57
2020/12/17 00:21:28;;;;;;;1.70;0.20;;;7.10;99.90;;;;;;5011680;28;20449;-58
2020/12/17 00:23:53;;;;;;;1.70;0.20;;;7.00;99.90;;;;;;5005308;28;20456;-58
2020/12/17 00:26:19;;;;;;;1.80;0.30;;;6.90;99.90;;;;;;5008186;28;20220;-58
2020/12/17 00:28:45;;;;;;;1.70;0.20;;;6.90;99.90;;;;;;5004916;28;20689;-58
2020/12/17 00:31:10;;;;;;;1.70;0.20;;;6.80;99.90;;;;;;5005310;28;20191;-58
2020/12/17 00:33:36;;;;;;;1.70;0.20;;;6.80;99.90;;;;;;5010703;28;20829;-58
2020/12/17 00:36:01;;;;;;;1.73;0.20;;;6.70;99.90;;;;;;5035480;23;20305;-64
2020/12/17 00:38:27;;;;;;;1.80;0.30;;;6.70;99.90;;;;;;5027923;28;20321;-65
2020/12/17 00:40:52;;;;;;;1.70;0.20;;;6.80;99.90;;;;;;5032005;28;20185;-65
2020/12/17 00:43:18;;;;;;;1.70;0.20;;;6.80;99.90;;;;;;5032517;28;20541;-65
2020/12/17 00:45:43;;;;;;;1.70;0.20;;;6.80;99.90;;;;;;5026250;28;20256;-65
2020/12/17 00:48:09;;;;;;;1.70;0.20;;;6.80;99.90;;;;;;5015982;28;20188;-65
2020/12/17 00:50:34;;;;;;;1.70;0.20;;;6.80;99.90;;;;;;5023934;28;20194;-65
2020/12/17 00:53:00;;;;;;;18.40;16.90;;;6.80;99.90;;;;;;5023181;28;20186;-65
2020/12/17 00:55:25;;;;;;;1.70;0.20;;;6.70;99.90;;;;;;5017762;28;20210;-65
2020/12/17 00:57:51;;;;;;;1.70;0.20;;;6.60;99.90;;;;;;5018257;28;20206;-65
2020/12/17 01:00:16;;;;;;;1.70;0.20;;;6.60;99.90;;;;;;5022376;28;20200;-65
2020/12/17 01:02:42;;;;;;;1.70;0.20;;;6.50;99.90;;;;;;5014118;28;20257;-65
2020/12/17 01:05:07;;;;;;;1.70;0.20;;;6.60;99.90;;;;;;5018115;28;20225;-65
2020/12/17 01:07:33;;;;;;;1.70;0.20;;;6.60;99.90;;;;;;5018839;28;20179;-65
2020/12/17 01:09:59;;;;;;;1.77;0.30;;;6.60;99.90;;;;;;5013896;28;20190;-65
2020/12/17 01:12:25;;;;;;;1.70;0.20;;;6.60;99.90;;;;;;5020566;28;20201;-65
2020/12/17 01:14:50;;;;;;;1.70;0.20;;;6.70;99.90;;;;;;5027428;28;20527;-65
2020/12/17 01:17:16;;;;;;;1.70;0.20;;;6.80;99.90;;;;;;5020794;28;20684;-65
2020/12/17 01:19:43;;;;;;;1.70;0.20;;;6.70;99.90;;;;;;5018863;28;20619;-65
2020/12/17 01:22:09;;;;;;;1.70;0.20;;;6.70;99.90;;;;;;5014861;28;20191;-65
2020/12/17 01:24:34;;;;;;;1.70;0.20;;;6.70;99.90;;;;;;5013963;28;20491;-64
2020/12/17 01:27:00;;;;;;;1.70;0.20;;;6.70;99.90;;;;;;5017347;28;20206;-65
2020/12/17 01:29:25;;;;;;;1.70;0.20;;;6.80;99.90;;;;;;5021812;28;20189;-64
2020/12/17 01:31:55;;;;;;;1.93;0.30;;;6.70;99.90;;;;;;5015876;28;20261;-65
2020/12/17 01:34:22;;;;;;;1.70;0.20;;;6.70;99.90;;;;;;5018501;28;20232;-65
2020/12/17 01:36:51;;;;;;;1.80;0.30;;;6.70;99.90;;;;;;5026172;28;20476;-65
2020/12/17 01:39:16;;;;;;;1.70;0.20;;;6.60;99.90;;;;;;5016609;28;20476;-65
2020/12/17 01:41:42;;;;;;;1.77;0.47;;;6.50;99.90;;;;;;5018665;28;20800;-65
2020/12/17 01:44:07;;;;;;;1.70;0.20;;;6.50;99.90;;;;;;5025779;28;20179;-65
2020/12/17 01:46:33;;;;;;;1.73;0.20;;;6.50;99.90;;;;;;5017466;28;20276;-65
2020/12/17 01:49:01;;;;;;;1.70;0.20;;;6.50;99.90;;;;;;5023131;28;20229;-65
2020/12/17 01:51:27;;;;;;;1.70;0.20;;;6.60;99.90;;;;;;5014745;28;20182;-64
2020/12/17 01:53:54;;;;;;;1.70;0.20;;;6.60;99.90;;;;;;5014697;28;20496;-65
2020/12/17 01:56:28;;;;;;;1.70;0.20;;;6.60;99.90;;;;;;5021152;28;20205;-64
2020/12/17 01:59:11;;;;;;;1.70;0.20;;;6.70;99.90;;;;;;5012370;28;20492;-65
2020/12/17 02:01:43;;;;;;;1.70;0.20;;;6.70;99.90;;;;;;5018412;28;20442;-65
2020/12/17 02:04:09;;;;;;;1.70;0.20;;;6.80;99.90;;;;;;5023323;28;20476;-65
2020/12/17 02:06:35;;;;;;;1.70;0.20;;;6.80;99.90;;;;;;5019687;28;20448;-65
2020/12/17 02:09:02;;;;;;;1.70;0.20;;;6.80;99.90;;;;;;5017847;28;20465;-64
2020/12/17 02:11:27;;;;;;;1.70;0.20;;;6.70;99.90;;;;;;5017557;28;21001;-65
2020/12/17 02:13:53;;;;;;;1.73;0.20;;;6.60;99.90;;;;;;5031548;28;20448;-65
2020/12/17 02:16:18;;;;;;;1.70;0.20;;;6.60;99.90;;;;;;5018796;28;20217;-65
2020/12/17 02:18:44;;;;;;;1.70;0.20;;;6.60;99.90;;;;;;5028256;28;20583;-64
2020/12/17 02:21:11;;;;;;;1.70;0.20;;;6.50;99.90;;;;;;5017495;28;20178;-65
2020/12/17 02:23:38;;;;;;;14.67;13.93;;;6.50;99.90;;;;;;5019071;28;20903;-65
2020/12/17 02:26:05;;;;;;;1.70;0.20;;;6.50;99.90;;;;;;5028727;28;20455;-65
2020/12/17 02:28:31;;;;;;;1.70;0.20;;;6.50;99.90;;;;;;5018545;28;20448;-65
2020/12/17 02:30:56;;;;;;;1.70;0.20;;;6.50;99.90;;;;;;5022620;28;20442;-65
2020/12/17 02:33:22;;;;;;;1.70;0.20;;;6.40;99.90;;;;;;5029082;28;20535;-65
2020/12/17 02:35:48;;;;;;;1.70;0.20;;;6.50;99.90;;;;;;5019083;28;20570;-65
2020/12/17 02:38:13;;;;;;;1.70;0.20;;;6.40;99.90;;;;;;5018088;28;20203;-65
2020/12/17 02:40:39;;;;;;;1.70;0.20;;;6.30;99.90;;;;;;5015747;28;20190;-65
2020/12/17 02:43:05;;;;;;;1.90;0.67;;;6.40;99.90;;;;;;5019187;28;20548;-65
2020/12/17 02:45:30;;;;;;;1.70;0.20;;;6.30;99.90;;;;;;5024138;28;20242;-65
2020/12/17 02:47:56;;;;;;;1.73;0.20;;;6.30;99.90;;;;;;5015483;28;20436;-64
2020/12/17 02:50:22;;;;;;;1.70;0.20;;;6.20;99.90;;;;;;5019941;28;20612;-65
2020/12/17 02:52:47;;;;;;;1.70;0.20;;;6.30;99.90;;;;;;5018842;28;20680;-65
2020/12/17 02:55:13;;;;;;;1.70;0.20;;;6.30;99.90;;;;;;5020938;28;20198;-65
2020/12/17 02:57:38;;;;;;;1.80;0.20;;;6.30;99.90;;;;;;5017361;28;20253;-65
2020/12/17 03:00:07;;;;;;;1.70;0.20;;;6.30;99.90;;;;;;5019004;28;20205;-65
2020/12/17 03:02:32;;;;;;;1.70;0.20;;;6.30;99.90;;;;;;5018542;28;20190;-65
2020/12/17 03:04:58;;;;;;;1.70;0.20;;;6.30;99.90;;;;;;5017502;28;20528;-65
2020/12/17 03:07:23;;;;;;;1.73;0.20;;;6.30;99.90;;;;;;5026948;28;20381;-64
2020/12/17 03:09:49;;;;;;;1.70;0.20;;;6.30;99.90;;;;;;5016061;28;20616;-65
2020/12/17 03:12:14;;;;;;;1.70;0.20;;;6.30;99.90;;;;;;5019546;28;20712;-65
2020/12/17 03:14:40;;;;;;;10.13;9.63;;;6.30;99.90;;;;;;5017057;28;20203;-64
2020/12/17 03:17:05;;;;;;;1.70;0.20;;;6.30;99.90;;;;;;5018773;28;20211;-64
2020/12/17 03:19:31;;;;;;;1.70;0.20;;;6.40;99.90;;;;;;5032986;28;20209;-65
2020/12/17 03:21:56;;;;;;;1.70;0.20;;;6.50;99.90;;;;;;5029448;28;20264;-65
2020/12/17 03:24:22;;;;;;;2.50;0.87;;;6.50;99.90;;;;;;5018793;28;20186;-65
2020/12/17 03:26:47;;;;;;;1.70;0.20;;;6.50;99.90;;;;;;5026765;28;20232;-65
2020/12/17 03:29:13;;;;;;;1.70;0.20;;;6.40;99.90;;;;;;5018775;28;20226;-64
2020/12/17 03:31:38;;;;;;;1.70;0.20;;;6.50;99.90;;;;;;5018852;28;20194;-65
2020/12/17 03:34:04;;;;;;;1.70;0.20;;;6.50;99.90;;;;;;5018772;28;20190;-65
2020/12/17 03:36:29;;;;;;;1.70;0.20;;;6.50;99.90;;;;;;5021053;28;20220;-65
2020/12/17 03:38:55;;;;;;;1.70;0.20;;;6.40;99.90;;;;;;5015378;28;20209;-64
2020/12/17 03:41:20;;;;;;;1.70;0.20;;;6.40;99.90;;;;;;5017617;28;20190;-64
2020/12/17 03:43:46;;;;;;;1.70;0.20;;;6.30;99.90;;;;;;5022410;28;20186;-64
2020/12/17 03:46:11;;;;;;;1.73;0.20;;;6.30;99.90;;;;;;5020857;28;20211;-64
2020/12/17 03:48:37;;;;;;;1.90;0.73;;;6.30;99.90;;;;;;5019439;28;20195;-64
2020/12/17 03:51:02;;;;;;;1.70;0.20;;;6.20;99.90;;;;;;5015822;28;20225;-65
2020/12/17 03:53:28;;;;;;;1.70;0.20;;;6.20;99.90;;;;;;5016451;28;20677;-64
2020/12/17 03:55:53;;;;;;;1.70;0.20;;;6.20;99.90;;;;;;5015698;28;20226;-65
2020/12/17 03:58:19;;;;;;;1.70;0.20;;;6.20;99.90;;;;;;5016948;28;20212;-65
2020/12/17 04:00:44;;;;;;;1.70;0.20;;;6.20;99.90;;;;;;5017150;28;20190;-64
2020/12/17 04:03:10;;;;;;;1.70;0.20;;;6.10;99.90;;;;;;5027759;28;20691;-64
2020/12/17 04:05:35;;;;;;;1.70;0.20;;;6.10;99.90;;;;;;5015963;28;20265;-64
2020/12/17 04:08:01;;;;;;;1.70;0.20;;;6.10;99.90;;;;;;5022835;28;20186;-64
2020/12/17 04:10:27;;;;;;;1.70;0.20;;;6.00;99.90;;;;;;5025378;28;20235;-65
2020/12/17 04:12:52;;;;;;;1.70;0.20;;;6.10;99.90;;;;;;5019767;28;20809;-66
2020/12/17 04:15:17;;;;;;;1.70;0.20;;;6.20;99.90;;;;;;5040318;28;20213;-66
2020/12/17 04:17:43;;;;;;;1.70;0.20;;;6.20;99.90;;;;;;5033454;28;20194;-66
2020/12/17 04:20:09;;;;;;;1.90;0.70;;;6.20;99.90;;;;;;5037741;28;20201;-66
2020/12/17 04:22:34;;;;;;;1.70;0.20;;;6.10;99.90;;;;;;5038536;28;20775;-64
2020/12/17 04:24:59;;;;;;;1.70;0.20;;;6.20;99.90;;;;;;5019813;28;20277;-66
2020/12/17 04:27:25;;;;;;;1.80;0.47;;;6.20;99.90;;;;;;5020108;28;20190;-66
2020/12/17 04:29:51;;;;;;;2.37;1.27;;;6.20;99.90;;;;;;5030459;28;20232;-66
2020/12/17 04:32:16;;;;;;;1.70;0.20;;;6.10;99.90;;;;;;5018515;28;20212;-66
2020/12/17 04:34:42;;;;;;;1.70;0.20;;;6.00;99.90;;;;;;5027170;28;20202;-66
2020/12/17 04:37:07;;;;;;;1.70;0.20;;;6.10;99.90;;;;;;5024597;28;20225;-66
2020/12/17 04:39:33;;;;;;;1.70;0.20;;;6.10;99.90;;;;;;5016791;28;20710;-66
2020/12/17 04:41:59;;;;;;;1.70;0.20;;;6.10;99.90;;;;;;5016082;28;20183;-66
2020/12/17 04:44:27;;;;;;;1.70;0.20;;;6.20;99.90;;;;;;5014135;28;20226;-65
2020/12/17 04:46:56;;;;;;;1.70;0.20;;;6.20;99.90;;;;;;5016868;28;20457;-65
2020/12/17 04:49:25;;;;;;;1.70;0.20;;;6.20;99.90;;;;;;5013386;28;21251;-65
2020/12/17 04:51:55;;;;;;;1.70;0.20;;;6.20;99.90;;;;;;5023383;28;20445;-65
2020/12/17 04:54:21;;;;;;;1.70;0.20;;;6.10;99.90;;;;;;5016183;28;20437;-65
2020/12/17 04:56:57;;;;;;;1.70;0.20;;;6.10;99.90;;;;;;5016257;28;20544;-66
2020/12/17 04:59:38;;;;;;;1.80;0.30;;;6.20;99.90;;;;;;5019477;28;20517;-66
2020/12/17 05:02:05;;;;;;;1.73;0.20;;;6.10;99.90;;;;;;5026808;28;20498;-66
2020/12/17 05:04:39;;;;;;;1.70;0.20;;;6.00;99.90;;;;;;5014539;28;20445;-66
2020/12/17 05:07:09;;;;;;;2.80;2.60;;;6.00;99.90;;;;;;5012989;28;20461;-65
2020/12/17 05:09:38;;;;;;;2.00;1.07;;;6.00;99.90;;;;;;5013851;28;20445;-65
2020/12/17 05:12:04;;;;;;;1.73;0.20;;;6.10;99.90;;;;;;5014038;28;20445;-65
2020/12/17 05:14:31;;;;;;;1.70;0.20;;;6.10;99.90;;;;;;5015394;28;20488;-66
2020/12/17 05:16:57;;;;;;;1.70;0.20;;;6.10;99.90;;;;;;5017310;28;21322;-65
2020/12/17 05:19:24;;;;;;;1.70;0.20;;;6.10;99.90;;;;;;5014692;28;20547;-65
2020/12/17 05:21:51;;;;;;;1.80;0.30;;;6.10;99.90;;;;;;5021352;28;20439;-66
2020/12/17 05:24:23;;;;;;;1.70;0.20;;;6.10;99.90;;;;;;5023632;28;20437;-65
2020/12/17 05:26:49;;;;;;;1.70;0.20;;;6.00;99.90;;;;;;5015640;28;20456;-65
2020/12/17 05:29:18;;;;;;;1.77;0.37;;;5.90;99.90;;;;;;5012287;28;20980;-65
2020/12/17 05:31:45;;;;;;;1.70;0.20;;;5.90;99.90;;;;;;5013910;28;20517;-66
2020/12/17 05:34:12;;;;;;;1.70;0.20;;;5.80;99.90;;;;;;5015162;28;20428;-65
2020/12/17 05:36:40;;;;;;;1.70;0.20;;;5.80;99.90;;;;;;5013374;28;20823;-65
2020/12/17 05:39:20;;;;;;;1.70;0.20;;;5.80;99.90;;;;;;5018001;28;20468;-65
2020/12/17 05:41:51;;;;;;;1.77;0.20;;;5.90;99.90;;;;;;5025842;28;20441;-65
2020/12/17 05:44:19;;;;;;;1.70;0.20;;;5.90;99.90;;;;;;5015806;28;20468;-64
2020/12/17 05:46:46;;;;;;;1.70;0.20;;;6.00;99.90;;;;;;5014979;28;20464;-66
2020/12/17 05:49:26;;;;;;;3.17;1.47;;;6.00;99.90;;;;;;5023080;28;20498;-65
2020/12/17 05:52:15;;;;;;;1.80;0.30;;;6.00;99.90;;;;;;5021561;28;20444;-65
2020/12/17 05:55:02;;;;;;;1.70;0.30;;;5.90;99.90;;;;;;5018561;28;20527;-65
2020/12/17 05:57:28;;;;;;;1.70;0.20;;;5.80;99.90;;;;;;5011079;28;20429;-65
2020/12/17 06:00:20;;;;;;;1.80;0.60;;;5.80;99.90;;;;;;5016227;28;20465;-65
2020/12/17 06:02:45;;;;;;;1.70;0.20;;;5.90;99.90;;;;;;5015572;28;21116;-65
2020/12/17 06:05:21;;;;;;;1.80;0.30;;;5.90;99.90;;;;;;5022412;28;20468;-65
2020/12/17 06:07:49;;;;;;;1.70;0.20;;;6.00;99.90;;;;;;5019732;28;20170;-65
2020/12/17 06:10:23;;;;;;;1.70;0.20;;;6.10;99.90;;;;;;5014895;28;20448;-65
2020/12/17 06:12:51;;;;;;;1.70;0.20;;;6.00;99.90;;;;;;5012991;28;20627;-66
2020/12/17 06:15:19;;;;;;;1.70;0.20;;;6.10;99.90;;;;;;5025388;28;20523;-65
2020/12/17 06:17:52;;;;;;;1.70;0.20;;;6.10;99.90;;;;;;5015481;28;20452;-65
2020/12/17 06:20:20;;;;;;;1.70;0.20;;;6.10;99.90;;;;;;5024306;28;20971;-65
2020/12/17 06:22:54;;;;;;;1.73;0.27;;;6.10;99.90;;;;;;5013598;28;20422;-65
2020/12/17 06:25:20;;;;;;;1.70;0.20;;;6.10;99.90;;;;;;5019305;28;20816;-65
2020/12/17 06:27:48;;;;;;;1.70;0.20;;;6.20;99.90;;;;;;5019635;28;20429;-65
2020/12/17 06:30:28;;;;;;;1.70;0.20;;;6.30;99.90;;;;;;5012402;28;20429;-65
2020/12/17 06:32:57;;;;;;;1.70;0.20;;;6.30;99.90;;;;;;5012963;28;20439;-65
2020/12/17 06:35:26;;;;;;;1.70;0.20;;;6.30;99.90;;;;;;5014070;28;20467;-65
2020/12/17 06:37:54;;;;;;;1.77;0.20;;;6.40;99.90;;;;;;5017609;28;20427;-65
2020/12/17 06:40:27;;;;;;;1.70;0.20;;;6.40;99.90;;;;;;5014171;28;20442;-65
2020/12/17 06:42:54;;;;;;;1.70;0.20;;;6.40;99.90;;;;;;5016563;28;20968;-65
2020/12/17 06:45:30;;;;;;;1.70;0.20;;;6.30;99.90;;;;;;5023815;28;20513;-65
2020/12/17 06:47:56;;;;;;;1.70;0.20;;;6.20;99.90;;;;;;5020866;28;20949;-65
2020/12/17 06:50:22;;;;;;;1.73;0.20;;;6.20;99.90;;;;;;5021053;28;20437;-65
2020/12/17 06:53:04;;;;;;;1.70;0.20;;;6.20;99.90;;;;;;5024020;28;20327;-64
2020/12/17 06:55:50;;;;;;;1.73;0.20;;;6.10;99.90;;;;;;5024302;28;20464;-65
2020/12/17 06:58:23;;;;;;;1.90;0.80;;;6.10;99.90;;;;;;5021787;28;20554;-65
2020/12/17 07:00:53;;;;;;;1.70;0.20;;;6.20;99.90;;;;;;5025623;28;20465;-65
2020/12/17 07:03:46;;;;;;;1.70;0.20;;;6.20;99.90;;;;;;5017586;28;20484;-65
2020/12/17 07:06:30;;;;;;;1.70;0.20;;;6.30;99.90;;;;;;5020934;28;20456;-65
2020/12/17 07:08:57;;;;;;;1.70;0.20;;;6.40;99.90;;;;;;5025634;28;20932;-64
2020/12/17 07:11:45;;;;;;;1.70;0.20;;;6.40;99.90;;;;;;5025607;28;20531;-64
2020/12/17 07:14:25;;;;;;;1.70;0.20;;;6.40;99.90;;;;;;5017449;28;20499;-65
2020/12/17 07:16:59;;;;;;;1.70;0.20;;;6.40;99.90;;;;;;5024407;28;20453;-65
2020/12/17 07:22:15;;;;;;;2.10;1.30;;;6.40;99.90;;;;;;5024423;28;20964;-59
2020/12/17 07:24:49;;;;;;;1.70;0.20;;;6.40;99.90;;;;;;5031639;28;20760;-58
2020/12/17 07:27:22;;;;;;;1.70;0.20;;;6.40;99.90;;;;;;5029595;28;20447;-58
2020/12/17 07:30:04;;;;;;;1.70;0.20;;;6.40;99.90;;;;;;5032815;28;20488;-59
2020/12/17 07:32:37;;;;;;;1.70;0.20;;;6.40;99.90;;;;;;5026422;28;20429;-58
2020/12/17 07:35:06;;;;;;;1.70;0.20;;;6.40;99.90;;;;;;5028383;28;20514;-58
2020/12/17 07:37:45;;;;;;;1.70;0.20;;;6.30;99.90;;;;;;5030122;28;20436;-58
2020/12/17 07:40:26;;;;;;;1.70;0.20;;;6.30;99.90;;;;;;5025345;28;20472;-58
2020/12/17 07:42:59;;;;;;;1.70;0.20;;;6.30;99.90;;;;;;5031538;28;20425;-58
2020/12/17 07:45:44;;;;;;;1.90;0.67;;;6.30;99.90;;;;;;5020922;28;20514;-58
2020/12/17 07:48:39;;;;;;;1.70;0.20;;;6.30;99.90;;;;;;5024486;28;20444;-58
2020/12/17 07:51:31;;;;;;;1.70;0.20;;;6.40;99.90;;;;;;5026471;28;20453;-58
2020/12/17 07:54:00;;;;;;;1.70;0.20;;;6.40;99.90;;;;;;5015387;28;20448;-58
2020/12/17 07:56:26;;;;;;;1.70;0.20;;;6.50;99.90;;;;;;5028834;28;20775;-58
2020/12/17 07:58:52;;;;;;;1.70;0.20;;;6.50;99.90;;;;;;5027167;28;20473;-58
2020/12/17 08:01:18;;;;;;;1.70;0.20;;;6.60;99.90;;;;;;5021654;28;20273;-58
2020/12/17 08:03:50;;;;;;;1.70;0.20;;;6.50;99.90;;;;;;5021458;28;20464;-58
2020/12/17 08:06:17;;;;;;;1.80;0.37;;;6.50;99.90;;;;;;5021978;28;20481;-58
2020/12/17 08:08:45;;;;;;;1.70;0.20;;;6.50;99.90;;;;;;5018213;28;20447;-59
2020/12/17 08:11:12;;;;;;;1.70;0.20;;;6.60;99.90;;;;;;5021087;28;20518;-59
2020/12/17 08:13:38;;;;;;;3.90;3.60;;;6.70;99.90;;;;;;5024990;28;20464;-59
2020/12/17 08:16:05;;;;;;;1.70;0.20;;;6.70;99.90;;;;;;5031482;28;20573;-59
2020/12/17 08:18:33;;;;;;;1.70;0.20;;;6.70;99.90;;;;;;5022706;28;20479;-59
2020/12/17 08:21:04;;;;;;;3.27;1.83;;;6.80;99.90;;;;;;5025499;28;20464;-59
2020/12/17 08:23:31;;;;;;;1.70;0.20;;;6.90;99.90;;;;;;5028771;28;20440;-60
2020/12/17 08:26:01;;;;;;;6.90;3.30;;;7.10;99.90;;;;;;5023182;28;20520;-60
2020/12/17 08:28:29;;;;;;;3.80;2.20;;;7.30;99.90;;;;;;5021809;28;21032;-59
2020/12/17 08:31:04;;;;;;;1.70;0.20;;;7.40;99.90;;;;;;5026126;28;20866;-59
2020/12/17 08:33:30;;;;;;;1.70;0.20;;;7.60;99.90;;;;;;5021113;28;20607;-59
2020/12/17 08:36:08;;;;;;;1.70;0.20;;;7.70;99.90;;;;;;5024830;28;20871;-59
2020/12/17 08:38:34;;;;;;;1.70;0.20;;;7.80;99.90;;;;;;5018178;28;20479;-59
2020/12/17 08:41:01;;;;;;;1.93;0.90;;;7.90;99.90;;;;;;5017328;28;20491;-60
2020/12/17 08:43:32;;;;;;;1.70;0.20;;;7.90;99.90;;;;;;5009053;28;20460;-60
2020/12/17 08:45:59;;;;;;;1.70;0.30;;;8.00;99.90;;;;;;5021943;28;20428;-59
2020/12/17 08:48:25;;;;;;;2.57;1.10;;;8.10;99.90;;;;;;5025854;28;20782;-60
2020/12/17 08:50:53;;;;;;;5.00;1.10;;;8.10;99.90;;;;;;5021154;28;20852;-59
2020/12/17 08:53:22;;;;;;;2.67;0.90;;;8.20;99.90;;;;;;5016583;28;20986;-59
2020/12/17 08:56:14;;;;;;;6.57;5.10;;;8.30;99.90;;;;;;5017449;28;20445;-59
2020/12/17 08:58:43;;;;;;;1.73;0.20;;;8.30;99.90;;;;;;5013702;28;20464;-60
2020/12/17 09:01:26;;;;;;;2.23;0.67;;;8.40;99.90;;;;;;5023585;28;20458;-59
2020/12/17 09:03:53;;;;;;;5.30;1.80;;;8.40;99.90;;;;;;5022849;28;20432;-59
2020/12/17 09:06:30;;;;;;;3.80;2.37;;;8.50;99.90;;;;;;5023961;28;20435;-59
2020/12/17 09:09:14;;;;;;;5.50;1.93;;;8.50;99.90;;;;;;5023570;28;20494;-59
2020/12/17 09:11:43;;;;;;;3.57;1.37;;;8.50;99.90;;;;;;5023530;28;20460;-59
2020/12/17 09:14:10;;;;;;;4.10;1.27;;;8.50;99.90;;;;;;5024123;28;20444;-59
2020/12/17 09:16:39;;;;;;;2.10;0.50;;;8.50;99.90;;;;;;5028345;28;20437;-59
2020/12/17 09:19:09;;;;;;;1.80;0.50;;;8.50;99.90;;;;;;5022836;28;20460;-59
2020/12/17 09:21:53;;;;;;;1.70;0.20;;;8.50;99.90;;;;;;5021747;28;20556;-59
2020/12/17 09:24:26;;;;;;;1.70;0.20;;;8.50;99.90;;;;;;5016365;28;20922;-59
2020/12/17 09:26:52;;;;;;;2.97;1.67;;;8.50;99.90;;;;;;5024932;28;20830;-59
2020/12/17 09:29:18;;;;;;;2.30;0.83;;;8.50;99.90;;;;;;5023316;28;20911;-59
2020/12/17 09:31:44;;;;;;;2.90;1.83;;;8.50;99.90;;;;;;5015348;28;20465;-59
2020/12/17 09:34:10;;;;;;;6.00;3.73;;;8.50;99.90;;;;;;5022760;28;20246;-59
2020/12/17 09:36:39;;;;;;;1.90;0.63;;;8.50;99.90;;;;;;5019293;28;20189;-59
2020/12/17 09:39:07;;;;;;;5.53;3.43;;;8.50;99.90;;;;;;5019301;28;20471;-60
2020/12/17 09:41:33;;;;;;;2.00;0.50;;;8.50;99.90;;;;;;5020351;28;20457;-59
2020/12/17 09:43:59;;;;;;;2.77;1.30;;;8.50;99.90;;;;;;5025008;28;20445;-59
2020/12/17 09:46:45;;;;;;;3.20;1.30;;;8.40;99.90;;;;;;5023752;28;20453;-60
2020/12/17 09:49:31;;;;;;;1.70;0.20;;;8.40;99.90;;;;;;5024910;28;20440;-60
2020/12/17 09:52:05;;;;;;;2.77;1.50;;;8.40;99.90;;;;;;5019455;28;20451;-59
2020/12/17 09:54:31;;;;;;;7.20;3.20;;;8.40;99.90;;;;;;5027842;28;21102;-59
2020/12/17 09:57:02;;;;;;;10.50;4.30;;;8.30;99.90;;;;;;5019355;28;20444;-59
2020/12/17 09:59:28;;;;;;;3.63;1.50;;;8.30;99.90;;;;;;5020525;28;20881;-61
2020/12/17 10:02:01;;;;;;;1.77;0.30;;;8.30;99.90;;;;;;5021948;28;20441;-59
2020/12/17 10:04:27;;;;;;;1.97;0.87;;;8.30;99.90;;;;;;5014850;28;20642;-61
2020/12/17 10:06:53;;;;;;;1.70;0.20;;;8.30;99.90;;;;;;5020980;28;20448;-61
2020/12/17 10:09:20;;;;;;;3.67;2.63;;;8.40;99.90;;;;;;5027606;28;20437;-61
2020/12/17 10:11:50;;;;;;;3.20;1.83;;;8.40;99.90;;;;;;5022114;28;20456;-61
2020/12/17 10:14:17;;;;;;;4.33;1.70;;;8.40;99.90;;;;;;5024640;28;20455;-62
2020/12/17 10:16:43;;;;;;;1.73;0.20;;;8.40;99.90;;;;;;5024580;28;20515;-62
2020/12/17 10:19:09;;;;;;;6.57;3.90;;;8.40;99.90;;;;;;5023789;28;20559;-63
2020/12/17 10:21:36;;;;;;;2.07;0.30;;;8.40;99.90;;;;;;5022503;28;20209;-61
2020/12/17 10:24:02;;;;;;;1.70;0.20;;;8.40;99.90;;;;;;5022564;28;20421;-62
2020/12/17 10:26:29;;;;;;;1.80;0.40;;;8.40;99.90;;;;;;5021704;28;20441;-60
2020/12/17 10:28:55;;;;;;;10.33;3.50;;;8.40;99.90;;;;;;5022202;28;20449;-61
2020/12/17 10:31:20;;;;;;;3.30;1.43;;;8.40;99.90;;;;;;5020856;28;20522;-62
2020/12/17 10:33:46;;;;;;;2.00;0.80;;;8.50;99.90;;;;;;5025944;28;20190;-61
2020/12/17 10:36:12;;;;;;;1.70;0.20;;;8.50;99.90;;;;;;5024123;28;20234;-62
2020/12/17 10:38:38;;;;;;;4.87;3.67;;;8.50;99.90;;;;;;5015265;28;20464;-62
2020/12/17 10:41:04;;;;;;;1.70;0.20;;;8.50;99.90;;;;;;5020692;28;20512;-61
2020/12/17 10:43:29;;;;;;;2.73;1.33;;;8.60;99.90;;;;;;5028523;28;20259;-60
2020/12/17 10:45:55;;;;;;;1.80;0.40;;;8.60;99.90;;;;;;5028902;28;20451;-61
2020/12/17 10:48:21;;;;;;;4.17;2.97;;;8.70;99.90;;;;;;5023146;28;20198;-60
2020/12/17 10:50:48;;;;;;;2.37;0.90;;;8.70;99.90;;;;;;5028107;28;20213;-60
2020/12/17 10:53:15;;;;;;;1.70;0.30;;;8.70;99.90;;;;;;5010958;28;20186;-60
2020/12/17 10:55:41;;;;;;;1.80;0.50;;;8.80;99.90;;;;;;5024424;28;21198;-60
2020/12/17 10:58:07;;;;;;;3.80;1.93;;;8.80;99.90;;;;;;5025306;28;20536;-61
2020/12/17 11:00:35;;;;;;;1.70;0.20;;;8.80;99.90;;;;;;5023505;28;20695;-61
2020/12/17 11:03:01;;;;;;;2.10;0.73;;;8.80;99.90;;;;;;5025513;28;20881;-61
2020/12/17 11:05:26;;;;;;;2.60;1.70;;;8.80;99.90;;;;;;5023118;28;20428;-60
2020/12/17 11:07:52;;;;;;;1.70;0.20;;;8.80;99.90;;;;;;5019149;28;20438;-60
2020/12/17 11:10:18;;;;;;;2.87;1.63;;;8.90;99.90;;;;;;5028108;28;20309;-60
2020/12/17 11:12:44;;;;;;;1.70;0.20;;;8.90;99.90;;;;;;5032111;28;21009;-60
2020/12/17 11:15:10;;;;;;;8.60;5.00;;;9.00;99.90;;;;;;5026258;28;20181;-60
2020/12/17 11:17:35;;;;;;;4.10;1.33;;;9.00;99.90;;;;;;5030241;28;20177;-61
2020/12/17 11:20:01;;;;;;;3.37;1.23;;;9.00;99.90;;;;;;5023604;28;20217;-60
2020/12/17 11:22:29;;;;;;;3.10;1.60;;;9.00;99.90;;;;;;5025201;28;20178;-60
2020/12/17 11:24:55;;;;;;;3.80;2.43;;;9.10;99.90;;;;;;5025781;28;20444;-60
2020/12/17 11:27:20;;;;;;;5.93;2.90;;;9.10;99.90;;;;;;5020765;28;20453;-59
2020/12/17 11:29:46;;;;;;;4.53;2.20;;;9.20;99.90;;;;;;5024199;28;20205;-59
2020/12/17 11:32:12;;;;;;;3.90;1.70;;;9.20;99.90;;;;;;5019348;28;20190;-60
2020/12/17 11:34:37;;;;;;;1.70;0.20;;;9.20;99.90;;;;;;5025798;28;20217;-60
2020/12/17 11:37:03;;;;;;;2.33;1.17;;;9.30;99.90;;;;;;5027787;28;20214;-59
2020/12/17 11:39:29;;;;;;;1.70;0.20;;;9.40;99.90;;;;;;5023724;28;20487;-59
2020/12/17 11:41:55;;;;;;;1.80;0.40;;;9.40;99.90;;;;;;5023773;28;20487;-59
2020/12/17 11:44:21;;;;;;;1.70;0.20;;;9.40;99.90;;;;;;5029566;28;20265;-59
2020/12/17 11:46:46;;;;;;;4.60;3.50;;;9.40;99.90;;;;;;5023633;28;20173;-60
2020/12/17 11:49:13;;;;;;;1.70;0.20;;;9.40;99.90;;;;;;5023935;28;20796;-60
2020/12/17 11:51:38;;;;;;;6.97;2.40;;;9.40;99.90;;;;;;5023667;28;20201;-60
2020/12/17 11:54:04;;;;;;;1.70;0.20;;;9.40;99.90;;;;;;5020859;28;20491;-60
2020/12/17 11:56:30;;;;;;;1.70;0.20;;;9.50;99.90;;;;;;5021391;28;20290;-60
2020/12/17 11:58:57;;;;;;;1.70;0.20;;;9.40;99.90;;;;;;5022271;28;20564;-61
2020/12/17 12:01:29;;;;;;;1.80;0.30;;;9.40;99.90;;;;;;5023827;28;20461;-60
2020/12/17 12:03:55;;;;;;;1.93;0.53;;;9.40;99.90;;;;;;5021128;28;20433;-60
2020/12/17 12:06:20;;;;;;;7.47;4.27;;;9.40;99.90;;;;;;5015570;28;20437;-60
2020/12/17 12:08:46;;;;;;;4.50;2.93;;;9.30;99.90;;;;;;5026842;28;20766;-60
2020/12/17 12:11:11;;;;;;;3.60;1.03;;;9.30;99.90;;;;;;5019758;28;20323;-59
2020/12/17 12:13:37;;;;;;;2.77;1.10;;;9.30;99.90;;;;;;5020067;28;20186;-60
2020/12/17 12:16:03;;;;;;;3.30;0.80;;;9.30;99.90;;;;;;5022057;28;20687;-60
2020/12/17 12:18:29;;;;;;;1.70;0.20;;;9.30;99.90;;;;;;5027460;28;20813;-60
2020/12/17 12:20:55;;;;;;;1.80;0.30;;;9.30;99.90;;;;;;5024071;28;20209;-60
2020/12/17 12:23:21;;;;;;;3.80;2.27;;;9.40;99.90;;;;;;5018687;28;20187;-59
2020/12/17 12:25:47;;;;;;;1.70;0.20;;;9.40;99.90;;;;;;5026274;28;21082;-60
2020/12/17 12:28:13;;;;;;;3.60;1.23;;;9.40;99.90;;;;;;5024747;28;20220;-59
2020/12/17 12:30:38;;;;;;;1.70;0.20;;;9.50;99.90;;;;;;5024707;28;20232;-59
2020/12/17 12:33:04;;;;;;;5.37;3.23;;;9.50;99.90;;;;;;5026934;28;20179;-60
2020/12/17 12:35:30;;;;;;;4.23;2.67;;;9.50;99.90;;;;;;5013812;28;20270;-60
2020/12/17 12:37:55;;;;;;;1.90;0.40;;;9.50;99.90;;;;;;5019653;28;20186;-61
2020/12/17 12:40:21;;;;;;;4.70;2.60;;;9.50;99.90;;;;;;5027865;28;20744;-61
2020/12/17 12:42:47;;;;;;;4.47;2.17;;;9.60;99.90;;;;;;5020220;28;20209;-60
2020/12/17 12:45:13;;;;;;;1.70;0.20;;;9.60;99.90;;;;;;5019868;28;20789;-61
2020/12/17 12:47:38;;;;;;;1.70;0.20;;;9.60;99.90;;;;;;5022449;28;20259;-61
2020/12/17 12:50:04;;;;;;;1.70;0.20;;;9.60;99.90;;;;;;5024962;28;20214;-61
2020/12/17 12:52:29;;;;;;;1.70;0.20;;;9.70;99.90;;;;;;5023507;28;20198;-60
2020/12/17 12:54:55;;;;;;;2.83;1.30;;;9.70;99.90;;;;;;5019607;28;20182;-62
2020/12/17 12:57:21;;;;;;;3.90;2.87;;;9.70;99.90;;;;;;5021298;28;20695;-60
2020/12/17 12:59:47;;;;;;;4.33;2.40;;;9.70;99.90;;;;;;5020775;28;20552;-59
2020/12/17 13:02:12;;;;;;;1.70;0.20;;;9.70;99.90;;;;;;5019352;28;20175;-61
2020/12/17 13:04:39;;;;;;;5.20;2.47;;;9.60;99.90;;;;;;5023842;28;20197;-59
2020/12/17 13:07:05;;;;;;;3.03;1.07;;;9.70;99.90;;;;;;5021575;28;20178;-60